sensor_id;sensor_type;location;lat;lon;timestamp;P1;durP1;ratioP1;P2;durP2;ratioP2
75930;SDS011;64609;47.052;15.462;2023-06-14T00:01:40;5.32;;;3.20;;
75930;SDS011;64609;47.052;15.462;2023-06-14T00:04:06;7.47;;;3.10;;
75930;SDS011;64609;47.052;15.462;2023-06-14T00:06:33;4.55;;;3.15;;
75930;SDS011;64609;47.052;15.462;2023-06-14T00:08:59;8.35;;;3.38;;
75930;SDS011;64609;47.052;15.462;2023-06-14T00:11:25;10.38;;;3.65;;
75930;SDS011;64609;47.052;15.462;2023-06-14T00:13:52;5.35;;;3.22;;
75930;SDS011;64609;47.052;15.462;2023-06-14T00:16:17;6.80;;;4.00;;
75930;SDS011;64609;47.052;15.462;2023-06-14T00:18:44;6.55;;;3.33;;
75930;SDS011;64609;47.052;15.462;2023-06-14T00:21:10;6.30;;;3.30;;
75930;SDS011;64609;47.052;15.462;2023-06-14T00:23:37;5.55;;;3.38;;
75930;SDS011;64609;47.052;15.462;2023-06-14T00:26:02;6.15;;;3.45;;
75930;SDS011;64609;47.052;15.462;2023-06-14T00:28:28;6.43;;;3.70;;
75930;SDS011;64609;47.052;15.462;2023-06-14T00:30:54;5.05;;;3.38;;
75930;SDS011;64609;47.052;15.462;2023-06-14T00:33:20;6.53;;;3.65;;
75930;SDS011;64609;47.052;15.462;2023-06-14T00:35:46;6.75;;;3.70;;
75930;SDS011;64609;47.052;15.462;2023-06-14T00:38:12;6.88;;;3.70;;
75930;SDS011;64609;47.052;15.462;2023-06-14T00:40:38;7.82;;;4.00;;
75930;SDS011;64609;47.052;15.462;2023-06-14T00:43:03;5.70;;;3.30;;
75930;SDS011;64609;47.052;15.462;2023-06-14T00:45:29;7.32;;;3.58;;
75930;SDS011;64609;47.052;15.462;2023-06-14T00:47:56;3.92;;;3.13;;
75930;SDS011;64609;47.052;15.462;2023-06-14T00:50:23;6.28;;;3.33;;
75930;SDS011;64609;47.052;15.462;2023-06-14T00:52:49;8.00;;;3.72;;
75930;SDS011;64609;47.052;15.462;2023-06-14T00:55:15;4.75;;;3.42;;
75930;SDS011;64609;47.052;15.462;2023-06-14T00:57:41;5.00;;;3.47;;
75930;SDS011;64609;47.052;15.462;2023-06-14T01:00:07;8.60;;;3.28;;
75930;SDS011;64609;47.052;15.462;2023-06-14T01:02:37;5.68;;;3.70;;
75930;SDS011;64609;47.052;15.462;2023-06-14T01:05:04;5.93;;;3.80;;
75930;SDS011;64609;47.052;15.462;2023-06-14T01:15:38;5.97;;;3.90;;
75930;SDS011;64609;47.052;15.462;2023-06-14T01:18:06;7.75;;;3.90;;
75930;SDS011;64609;47.052;15.462;2023-06-14T01:20:32;7.75;;;4.35;;
75930;SDS011;64609;47.052;15.462;2023-06-14T01:23:01;6.55;;;3.97;;
75930;SDS011;64609;47.052;15.462;2023-06-14T01:25:27;4.95;;;3.45;;
75930;SDS011;64609;47.052;15.462;2023-06-14T01:27:55;6.20;;;3.60;;
75930;SDS011;64609;47.052;15.462;2023-06-14T01:30:27;5.85;;;3.33;;
75930;SDS011;64609;47.052;15.462;2023-06-14T01:32:55;7.05;;;3.63;;
75930;SDS011;64609;47.052;15.462;2023-06-14T01:35:23;5.28;;;3.63;;
75930;SDS011;64609;47.052;15.462;2023-06-14T01:37:49;10.77;;;3.83;;
75930;SDS011;64609;47.052;15.462;2023-06-14T01:40:17;7.90;;;3.92;;
75930;SDS011;64609;47.052;15.462;2023-06-14T01:42:45;6.15;;;3.75;;
75930;SDS011;64609;47.052;15.462;2023-06-14T01:45:12;10.05;;;4.40;;
75930;SDS011;64609;47.052;15.462;2023-06-14T01:47:38;6.05;;;3.40;;
75930;SDS011;64609;47.052;15.462;2023-06-14T01:50:05;5.65;;;3.92;;
75930;SDS011;64609;47.052;15.462;2023-06-14T01:52:31;6.20;;;3.88;;
75930;SDS011;64609;47.052;15.462;2023-06-14T01:54:57;3.85;;;3.45;;
75930;SDS011;64609;47.052;15.462;2023-06-14T01:57:23;7.25;;;4.15;;
75930;SDS011;64609;47.052;15.462;2023-06-14T01:59:51;5.38;;;3.72;;
75930;SDS011;64609;47.052;15.462;2023-06-14T02:02:17;6.43;;;3.67;;
75930;SDS011;64609;47.052;15.462;2023-06-14T02:04:43;7.80;;;3.80;;
75930;SDS011;64609;47.052;15.462;2023-06-14T02:07:12;7.32;;;4.32;;
75930;SDS011;64609;47.052;15.462;2023-06-14T02:09:38;6.60;;;3.58;;
75930;SDS011;64609;47.052;15.462;2023-06-14T02:12:04;6.53;;;3.80;;
75930;SDS011;64609;47.052;15.462;2023-06-14T02:14:30;4.22;;;3.65;;
75930;SDS011;64609;47.052;15.462;2023-06-14T02:16:56;8.07;;;3.97;;
75930;SDS011;64609;47.052;15.462;2023-06-14T02:19:21;6.40;;;3.75;;
75930;SDS011;64609;47.052;15.462;2023-06-14T02:21:47;7.15;;;3.90;;
75930;SDS011;64609;47.052;15.462;2023-06-14T02:24:13;8.63;;;4.07;;
75930;SDS011;64609;47.052;15.462;2023-06-14T02:26:38;5.63;;;3.88;;
75930;SDS011;64609;47.052;15.462;2023-06-14T02:29:05;5.63;;;3.70;;
75930;SDS011;64609;47.052;15.462;2023-06-14T02:31:31;11.27;;;3.80;;
75930;SDS011;64609;47.052;15.462;2023-06-14T02:33:57;7.50;;;3.63;;
75930;SDS011;64609;47.052;15.462;2023-06-14T02:36:23;7.13;;;3.47;;
75930;SDS011;64609;47.052;15.462;2023-06-14T02:38:49;4.78;;;3.70;;
75930;SDS011;64609;47.052;15.462;2023-06-14T02:41:15;6.03;;;3.63;;
75930;SDS011;64609;47.052;15.462;2023-06-14T02:43:41;6.68;;;3.50;;
75930;SDS011;64609;47.052;15.462;2023-06-14T02:46:06;7.30;;;3.35;;
75930;SDS011;64609;47.052;15.462;2023-06-14T02:48:32;6.63;;;3.40;;
75930;SDS011;64609;47.052;15.462;2023-06-14T02:50:58;9.23;;;3.80;;
75930;SDS011;64609;47.052;15.462;2023-06-14T02:53:24;11.60;;;3.70;;
75930;SDS011;64609;47.052;15.462;2023-06-14T02:55:49;6.20;;;3.67;;
75930;SDS011;64609;47.052;15.462;2023-06-14T02:58:15;5.93;;;3.85;;
75930;SDS011;64609;47.052;15.462;2023-06-14T03:00:41;9.25;;;3.80;;
75930;SDS011;64609;47.052;15.462;2023-06-14T03:03:07;4.82;;;3.60;;
75930;SDS011;64609;47.052;15.462;2023-06-14T03:05:40;5.70;;;3.90;;
75930;SDS011;64609;47.052;15.462;2023-06-14T03:08:11;6.22;;;3.75;;
75930;SDS011;64609;47.052;15.462;2023-06-14T03:10:41;6.68;;;3.65;;
75930;SDS011;64609;47.052;15.462;2023-06-14T03:13:08;5.68;;;3.28;;
75930;SDS011;64609;47.052;15.462;2023-06-14T03:15:34;7.45;;;3.72;;
75930;SDS011;64609;47.052;15.462;2023-06-14T03:18:00;7.47;;;3.42;;
75930;SDS011;64609;47.052;15.462;2023-06-14T03:20:26;4.93;;;3.80;;
75930;SDS011;64609;47.052;15.462;2023-06-14T03:22:54;8.80;;;4.00;;
75930;SDS011;64609;47.052;15.462;2023-06-14T03:25:19;6.78;;;3.97;;
75930;SDS011;64609;47.052;15.462;2023-06-14T03:27:46;5.93;;;3.50;;
75930;SDS011;64609;47.052;15.462;2023-06-14T03:30:12;9.70;;;4.30;;
75930;SDS011;64609;47.052;15.462;2023-06-14T03:32:38;6.13;;;3.70;;
75930;SDS011;64609;47.052;15.462;2023-06-14T03:35:04;6.75;;;3.50;;
75930;SDS011;64609;47.052;15.462;2023-06-14T03:37:31;7.30;;;4.20;;
75930;SDS011;64609;47.052;15.462;2023-06-14T03:39:56;5.68;;;3.60;;
75930;SDS011;64609;47.052;15.462;2023-06-14T03:42:22;10.77;;;3.75;;
75930;SDS011;64609;47.052;15.462;2023-06-14T03:44:48;9.18;;;3.67;;
75930;SDS011;64609;47.052;15.462;2023-06-14T03:47:13;6.65;;;3.95;;
75930;SDS011;64609;47.052;15.462;2023-06-14T03:49:40;5.13;;;3.53;;
75930;SDS011;64609;47.052;15.462;2023-06-14T03:52:05;4.53;;;3.75;;
75930;SDS011;64609;47.052;15.462;2023-06-14T03:54:31;10.75;;;4.30;;
75930;SDS011;64609;47.052;15.462;2023-06-14T03:56:57;9.02;;;3.72;;
75930;SDS011;64609;47.052;15.462;2023-06-14T03:59:23;6.80;;;4.00;;
75930;SDS011;64609;47.052;15.462;2023-06-14T04:01:50;8.43;;;3.90;;
75930;SDS011;64609;47.052;15.462;2023-06-14T04:04:16;13.10;;;3.90;;
75930;SDS011;64609;47.052;15.462;2023-06-14T04:06:42;5.50;;;3.42;;
75930;SDS011;64609;47.052;15.462;2023-06-14T04:09:08;7.28;;;3.58;;
75930;SDS011;64609;47.052;15.462;2023-06-14T04:11:33;6.07;;;3.53;;
75930;SDS011;64609;47.052;15.462;2023-06-14T04:13:59;9.57;;;3.88;;
75930;SDS011;64609;47.052;15.462;2023-06-14T04:16:26;6.38;;;3.55;;
75930;SDS011;64609;47.052;15.462;2023-06-14T04:18:53;5.97;;;3.25;;
75930;SDS011;64609;47.052;15.462;2023-06-14T04:21:23;5.85;;;3.50;;
75930;SDS011;64609;47.052;15.462;2023-06-14T04:23:48;6.90;;;3.50;;
75930;SDS011;64609;47.052;15.462;2023-06-14T04:26:17;6.13;;;3.63;;
75930;SDS011;64609;47.052;15.462;2023-06-14T04:28:44;4.35;;;3.72;;
75930;SDS011;64609;47.052;15.462;2023-06-14T04:31:12;6.93;;;3.65;;
75930;SDS011;64609;47.052;15.462;2023-06-14T04:33:37;8.02;;;3.78;;
75930;SDS011;64609;47.052;15.462;2023-06-14T04:36:11;6.40;;;3.78;;
75930;SDS011;64609;47.052;15.462;2023-06-14T04:38:38;4.90;;;3.60;;
75930;SDS011;64609;47.052;15.462;2023-06-14T04:41:04;7.70;;;3.53;;
75930;SDS011;64609;47.052;15.462;2023-06-14T04:43:31;9.48;;;3.85;;
75930;SDS011;64609;47.052;15.462;2023-06-14T04:46:01;9.80;;;3.83;;
75930;SDS011;64609;47.052;15.462;2023-06-14T04:48:28;6.18;;;3.65;;
75930;SDS011;64609;47.052;15.462;2023-06-14T04:50:53;10.95;;;3.80;;
75930;SDS011;64609;47.052;15.462;2023-06-14T04:53:19;7.38;;;3.55;;
75930;SDS011;64609;47.052;15.462;2023-06-14T04:55:47;4.15;;;3.53;;
75930;SDS011;64609;47.052;15.462;2023-06-14T04:58:13;5.10;;;3.67;;
75930;SDS011;64609;47.052;15.462;2023-06-14T05:00:39;4.07;;;3.22;;
75930;SDS011;64609;47.052;15.462;2023-06-14T05:03:07;12.45;;;3.67;;
75930;SDS011;64609;47.052;15.462;2023-06-14T05:05:33;5.72;;;3.90;;
75930;SDS011;64609;47.052;15.462;2023-06-14T05:07:59;5.25;;;3.50;;
75930;SDS011;64609;47.052;15.462;2023-06-14T05:10:24;6.93;;;3.63;;
75930;SDS011;64609;47.052;15.462;2023-06-14T05:12:50;4.88;;;3.65;;
75930;SDS011;64609;47.052;15.462;2023-06-14T05:15:17;6.47;;;3.90;;
75930;SDS011;64609;47.052;15.462;2023-06-14T05:17:45;4.03;;;3.42;;
75930;SDS011;64609;47.052;15.462;2023-06-14T05:20:18;6.38;;;3.78;;
75930;SDS011;64609;47.052;15.462;2023-06-14T05:22:43;7.40;;;3.80;;
75930;SDS011;64609;47.052;15.462;2023-06-14T05:25:09;9.25;;;3.80;;
75930;SDS011;64609;47.052;15.462;2023-06-14T05:27:35;6.85;;;3.85;;
75930;SDS011;64609;47.052;15.462;2023-06-14T05:30:02;7.43;;;4.20;;
75930;SDS011;64609;47.052;15.462;2023-06-14T05:32:28;8.13;;;3.53;;
75930;SDS011;64609;47.052;15.462;2023-06-14T05:34:54;6.00;;;3.95;;
75930;SDS011;64609;47.052;15.462;2023-06-14T05:37:20;13.60;;;3.50;;
75930;SDS011;64609;47.052;15.462;2023-06-14T05:39:46;5.85;;;3.67;;
75930;SDS011;64609;47.052;15.462;2023-06-14T05:42:11;6.90;;;3.95;;
75930;SDS011;64609;47.052;15.462;2023-06-14T05:44:37;6.20;;;3.60;;
75930;SDS011;64609;47.052;15.462;2023-06-14T05:47:03;8.43;;;4.28;;
75930;SDS011;64609;47.052;15.462;2023-06-14T05:49:29;5.38;;;3.58;;
75930;SDS011;64609;47.052;15.462;2023-06-14T05:51:54;14.30;;;4.28;;
75930;SDS011;64609;47.052;15.462;2023-06-14T05:54:20;10.15;;;4.18;;
75930;SDS011;64609;47.052;15.462;2023-06-14T05:56:46;5.50;;;3.90;;
75930;SDS011;64609;47.052;15.462;2023-06-14T05:59:11;5.38;;;3.60;;
75930;SDS011;64609;47.052;15.462;2023-06-14T06:01:37;16.13;;;4.22;;
75930;SDS011;64609;47.052;15.462;2023-06-14T06:04:05;10.10;;;3.95;;
75930;SDS011;64609;47.052;15.462;2023-06-14T06:06:31;7.57;;;4.00;;
75930;SDS011;64609;47.052;15.462;2023-06-14T06:08:57;9.25;;;4.05;;
75930;SDS011;64609;47.052;15.462;2023-06-14T06:11:23;10.45;;;4.20;;
75930;SDS011;64609;47.052;15.462;2023-06-14T06:13:50;8.65;;;4.22;;
75930;SDS011;64609;47.052;15.462;2023-06-14T06:16:15;11.10;;;3.95;;
75930;SDS011;64609;47.052;15.462;2023-06-14T06:18:41;5.40;;;3.67;;
75930;SDS011;64609;47.052;15.462;2023-06-14T06:21:07;8.95;;;4.00;;
75930;SDS011;64609;47.052;15.462;2023-06-14T06:23:32;10.43;;;3.88;;
75930;SDS011;64609;47.052;15.462;2023-06-14T06:25:58;10.52;;;4.22;;
75930;SDS011;64609;47.052;15.462;2023-06-14T06:28:23;12.85;;;4.85;;
75930;SDS011;64609;47.052;15.462;2023-06-14T06:30:49;10.93;;;4.63;;
75930;SDS011;64609;47.052;15.462;2023-06-14T06:33:15;9.68;;;4.32;;
75930;SDS011;64609;47.052;15.462;2023-06-14T06:35:41;13.10;;;4.93;;
75930;SDS011;64609;47.052;15.462;2023-06-14T06:38:07;13.73;;;4.53;;
75930;SDS011;64609;47.052;15.462;2023-06-14T06:40:35;11.55;;;4.07;;
75930;SDS011;64609;47.052;15.462;2023-06-14T06:43:01;8.27;;;4.43;;
75930;SDS011;64609;47.052;15.462;2023-06-14T06:45:28;7.53;;;4.72;;
75930;SDS011;64609;47.052;15.462;2023-06-14T06:47:53;5.00;;;4.25;;
75930;SDS011;64609;47.052;15.462;2023-06-14T06:50:20;8.20;;;3.97;;
75930;SDS011;64609;47.052;15.462;2023-06-14T06:52:48;7.00;;;3.65;;
75930;SDS011;64609;47.052;15.462;2023-06-14T06:55:14;8.55;;;3.65;;
75930;SDS011;64609;47.052;15.462;2023-06-14T06:57:39;6.85;;;4.07;;
75930;SDS011;64609;47.052;15.462;2023-06-14T07:00:06;6.07;;;3.45;;
75930;SDS011;64609;47.052;15.462;2023-06-14T07:02:35;5.13;;;3.70;;
75930;SDS011;64609;47.052;15.462;2023-06-14T07:05:01;4.93;;;3.88;;
75930;SDS011;64609;47.052;15.462;2023-06-14T07:07:27;9.38;;;4.00;;
75930;SDS011;64609;47.052;15.462;2023-06-14T07:09:53;6.82;;;3.97;;
75930;SDS011;64609;47.052;15.462;2023-06-14T07:12:19;4.70;;;3.63;;
75930;SDS011;64609;47.052;15.462;2023-06-14T07:14:44;5.18;;;3.80;;
75930;SDS011;64609;47.052;15.462;2023-06-14T07:17:10;5.75;;;4.60;;
75930;SDS011;64609;47.052;15.462;2023-06-14T07:19:36;9.02;;;4.25;;
75930;SDS011;64609;47.052;15.462;2023-06-14T07:22:01;6.53;;;4.00;;
75930;SDS011;64609;47.052;15.462;2023-06-14T07:24:27;5.90;;;3.83;;
75930;SDS011;64609;47.052;15.462;2023-06-14T07:26:53;7.30;;;3.78;;
75930;SDS011;64609;47.052;15.462;2023-06-14T07:29:19;11.05;;;4.75;;
75930;SDS011;64609;47.052;15.462;2023-06-14T07:31:46;6.32;;;4.00;;
75930;SDS011;64609;47.052;15.462;2023-06-14T07:34:12;5.95;;;4.25;;
75930;SDS011;64609;47.052;15.462;2023-06-14T07:36:37;7.53;;;4.30;;
75930;SDS011;64609;47.052;15.462;2023-06-14T07:39:03;7.80;;;3.60;;
75930;SDS011;64609;47.052;15.462;2023-06-14T07:41:31;8.93;;;4.07;;
75930;SDS011;64609;47.052;15.462;2023-06-14T07:43:57;8.75;;;4.22;;
75930;SDS011;64609;47.052;15.462;2023-06-14T07:46:23;7.80;;;4.32;;
75930;SDS011;64609;47.052;15.462;2023-06-14T07:48:49;5.57;;;4.20;;
75930;SDS011;64609;47.052;15.462;2023-06-14T07:51:14;6.85;;;4.13;;
75930;SDS011;64609;47.052;15.462;2023-06-14T07:53:40;8.48;;;4.80;;
75930;SDS011;64609;47.052;15.462;2023-06-14T07:56:07;7.78;;;4.93;;
75930;SDS011;64609;47.052;15.462;2023-06-14T07:58:32;4.85;;;4.20;;
75930;SDS011;64609;47.052;15.462;2023-06-14T08:00:58;8.02;;;4.60;;
75930;SDS011;64609;47.052;15.462;2023-06-14T08:03:25;7.43;;;4.72;;
75930;SDS011;64609;47.052;15.462;2023-06-14T08:05:51;6.18;;;4.20;;
75930;SDS011;64609;47.052;15.462;2023-06-14T08:08:17;7.00;;;4.70;;
75930;SDS011;64609;47.052;15.462;2023-06-14T08:10:42;7.05;;;4.20;;
75930;SDS011;64609;47.052;15.462;2023-06-14T08:13:08;5.65;;;3.90;;
75930;SDS011;64609;47.052;15.462;2023-06-14T08:15:35;6.60;;;4.30;;
75930;SDS011;64609;47.052;15.462;2023-06-14T08:18:00;9.60;;;4.35;;
75930;SDS011;64609;47.052;15.462;2023-06-14T08:20:26;10.52;;;4.72;;
75930;SDS011;64609;47.052;15.462;2023-06-14T08:22:52;7.32;;;4.20;;
75930;SDS011;64609;47.052;15.462;2023-06-14T08:25:22;6.80;;;4.30;;
75930;SDS011;64609;47.052;15.462;2023-06-14T08:27:48;8.85;;;4.43;;
75930;SDS011;64609;47.052;15.462;2023-06-14T08:30:14;5.70;;;3.90;;
75930;SDS011;64609;47.052;15.462;2023-06-14T08:32:40;8.02;;;4.97;;
75930;SDS011;64609;47.052;15.462;2023-06-14T08:35:05;7.00;;;4.20;;
75930;SDS011;64609;47.052;15.462;2023-06-14T08:37:32;6.45;;;4.30;;
75930;SDS011;64609;47.052;15.462;2023-06-14T08:39:58;6.07;;;4.65;;
75930;SDS011;64609;47.052;15.462;2023-06-14T08:42:24;13.57;;;5.25;;
75930;SDS011;64609;47.052;15.462;2023-06-14T08:44:50;7.47;;;4.93;;
75930;SDS011;64609;47.052;15.462;2023-06-14T08:47:15;8.10;;;5.53;;
75930;SDS011;64609;47.052;15.462;2023-06-14T08:49:45;12.23;;;5.25;;
75930;SDS011;64609;47.052;15.462;2023-06-14T08:52:13;13.00;;;4.80;;
75930;SDS011;64609;47.052;15.462;2023-06-14T08:54:43;13.80;;;4.97;;
75930;SDS011;64609;47.052;15.462;2023-06-14T08:57:11;7.60;;;5.00;;
75930;SDS011;64609;47.052;15.462;2023-06-14T08:59:42;9.90;;;5.32;;
75930;SDS011;64609;47.052;15.462;2023-06-14T09:02:11;9.88;;;5.68;;
75930;SDS011;64609;47.052;15.462;2023-06-14T09:04:39;9.77;;;5.75;;
75930;SDS011;64609;47.052;15.462;2023-06-14T09:07:05;8.65;;;5.32;;
75930;SDS011;64609;47.052;15.462;2023-06-14T09:09:31;10.23;;;5.10;;
75930;SDS011;64609;47.052;15.462;2023-06-14T09:11:57;9.52;;;5.57;;
75930;SDS011;64609;47.052;15.462;2023-06-14T09:14:23;8.35;;;5.00;;
75930;SDS011;64609;47.052;15.462;2023-06-14T09:16:53;9.23;;;5.65;;
75930;SDS011;64609;47.052;15.462;2023-06-14T09:19:25;11.98;;;6.18;;
75930;SDS011;64609;47.052;15.462;2023-06-14T09:21:52;10.65;;;5.47;;
75930;SDS011;64609;47.052;15.462;2023-06-14T09:24:18;7.28;;;5.53;;
75930;SDS011;64609;47.052;15.462;2023-06-14T09:26:47;13.13;;;6.43;;
75930;SDS011;64609;47.052;15.462;2023-06-14T09:29:13;9.73;;;6.00;;
75930;SDS011;64609;47.052;15.462;2023-06-14T09:31:42;9.52;;;5.50;;
75930;SDS011;64609;47.052;15.462;2023-06-14T09:34:07;9.65;;;5.35;;
75930;SDS011;64609;47.052;15.462;2023-06-14T09:36:34;8.50;;;5.97;;
75930;SDS011;64609;47.052;15.462;2023-06-14T09:39:01;10.65;;;6.05;;
75930;SDS011;64609;47.052;15.462;2023-06-14T09:44:05;9.48;;;5.88;;
75930;SDS011;64609;47.052;15.462;2023-06-14T09:46:32;9.52;;;5.50;;
75930;SDS011;64609;47.052;15.462;2023-06-14T09:48:58;9.15;;;5.22;;
75930;SDS011;64609;47.052;15.462;2023-06-14T09:51:25;10.35;;;4.80;;
75930;SDS011;64609;47.052;15.462;2023-06-14T09:53:52;5.80;;;4.60;;
75930;SDS011;64609;47.052;15.462;2023-06-14T09:56:26;8.77;;;5.30;;
75930;SDS011;64609;47.052;15.462;2023-06-14T09:58:55;8.57;;;4.97;;
75930;SDS011;64609;47.052;15.462;2023-06-14T10:01:23;7.03;;;4.70;;
75930;SDS011;64609;47.052;15.462;2023-06-14T10:03:57;9.15;;;5.30;;
75930;SDS011;64609;47.052;15.462;2023-06-14T10:06:28;8.57;;;5.00;;
75930;SDS011;64609;47.052;15.462;2023-06-14T10:08:56;7.18;;;4.75;;
75930;SDS011;64609;47.052;15.462;2023-06-14T10:11:27;7.20;;;5.00;;
75930;SDS011;64609;47.052;15.462;2023-06-14T10:13:53;6.05;;;5.00;;
75930;SDS011;64609;47.052;15.462;2023-06-14T10:16:24;7.38;;;4.70;;
75930;SDS011;64609;47.052;15.462;2023-06-14T10:24:41;7.15;;;4.63;;
75930;SDS011;64609;47.052;15.462;2023-06-14T10:27:08;7.13;;;4.20;;
75930;SDS011;64609;47.052;15.462;2023-06-14T10:32:24;6.47;;;3.80;;
75930;SDS011;64609;47.052;15.462;2023-06-14T10:34:57;9.65;;;5.15;;
75930;SDS011;64609;47.052;15.462;2023-06-14T10:37:23;8.93;;;4.03;;
75930;SDS011;64609;47.052;15.462;2023-06-14T10:39:49;7.38;;;4.20;;
75930;SDS011;64609;47.052;15.462;2023-06-14T10:42:15;7.07;;;4.05;;
75930;SDS011;64609;47.052;15.462;2023-06-14T10:52:35;6.47;;;3.90;;
75930;SDS011;64609;47.052;15.462;2023-06-14T10:57:50;5.05;;;3.22;;
75930;SDS011;64609;47.052;15.462;2023-06-14T11:00:21;4.35;;;3.00;;
75930;SDS011;64609;47.052;15.462;2023-06-14T11:10:58;7.55;;;3.25;;
75930;SDS011;64609;47.052;15.462;2023-06-14T11:13:25;4.55;;;3.35;;
75930;SDS011;64609;47.052;15.462;2023-06-14T11:15:51;7.10;;;3.65;;
75930;SDS011;64609;47.052;15.462;2023-06-14T11:18:22;5.70;;;3.42;;
75930;SDS011;64609;47.052;15.462;2023-06-14T11:20:54;6.43;;;3.42;;
75930;SDS011;64609;47.052;15.462;2023-06-14T11:23:21;5.93;;;3.47;;
75930;SDS011;64609;47.052;15.462;2023-06-14T11:25:51;4.22;;;3.33;;
75930;SDS011;64609;47.052;15.462;2023-06-14T11:28:17;4.93;;;3.30;;
75930;SDS011;64609;47.052;15.462;2023-06-14T11:30:45;6.72;;;3.13;;
75930;SDS011;64609;47.052;15.462;2023-06-14T11:33:11;5.93;;;3.40;;
75930;SDS011;64609;47.052;15.462;2023-06-14T11:35:43;4.28;;;3.17;;
75930;SDS011;64609;47.052;15.462;2023-06-14T11:38:10;5.32;;;3.30;;
75930;SDS011;64609;47.052;15.462;2023-06-14T11:40:37;5.57;;;3.70;;
75930;SDS011;64609;47.052;15.462;2023-06-14T11:43:03;8.73;;;3.20;;
75930;SDS011;64609;47.052;15.462;2023-06-14T11:45:29;3.97;;;3.13;;
75930;SDS011;64609;47.052;15.462;2023-06-14T11:47:56;4.97;;;3.70;;
75930;SDS011;64609;47.052;15.462;2023-06-14T11:50:22;6.00;;;3.33;;
75930;SDS011;64609;47.052;15.462;2023-06-14T11:52:52;7.05;;;3.45;;
75930;SDS011;64609;47.052;15.462;2023-06-14T11:55:28;6.10;;;3.33;;
75930;SDS011;64609;47.052;15.462;2023-06-14T11:57:54;4.65;;;3.47;;
75930;SDS011;64609;47.052;15.462;2023-06-14T12:00:23;6.45;;;3.50;;
75930;SDS011;64609;47.052;15.462;2023-06-14T12:02:53;4.53;;;3.13;;
75930;SDS011;64609;47.052;15.462;2023-06-14T12:05:21;11.18;;;3.13;;
75930;SDS011;64609;47.052;15.462;2023-06-14T12:07:47;5.28;;;3.00;;
75930;SDS011;64609;47.052;15.462;2023-06-14T12:10:13;7.90;;;3.28;;
75930;SDS011;64609;47.052;15.462;2023-06-14T12:12:39;5.35;;;3.20;;
75930;SDS011;64609;47.052;15.462;2023-06-14T12:15:06;5.75;;;2.97;;
75930;SDS011;64609;47.052;15.462;2023-06-14T12:17:33;5.10;;;3.00;;
75930;SDS011;64609;47.052;15.462;2023-06-14T12:20:05;7.75;;;3.75;;
75930;SDS011;64609;47.052;15.462;2023-06-14T12:22:56;4.20;;;3.05;;
75930;SDS011;64609;47.052;15.462;2023-06-14T12:25:32;5.13;;;3.35;;
75930;SDS011;64609;47.052;15.462;2023-06-14T12:28:04;5.07;;;3.05;;
75930;SDS011;64609;47.052;15.462;2023-06-14T12:30:34;4.68;;;3.30;;
75930;SDS011;64609;47.052;15.462;2023-06-14T12:33:01;8.38;;;3.42;;
75930;SDS011;64609;47.052;15.462;2023-06-14T12:35:28;5.20;;;3.22;;
75930;SDS011;64609;47.052;15.462;2023-06-14T12:37:53;3.95;;;2.90;;
75930;SDS011;64609;47.052;15.462;2023-06-14T12:40:19;6.40;;;3.50;;
75930;SDS011;64609;47.052;15.462;2023-06-14T12:42:45;5.55;;;3.08;;
75930;SDS011;64609;47.052;15.462;2023-06-14T12:45:13;10.52;;;3.42;;
75930;SDS011;64609;47.052;15.462;2023-06-14T12:47:39;8.48;;;3.42;;
75930;SDS011;64609;47.052;15.462;2023-06-14T12:50:05;6.40;;;3.30;;
75930;SDS011;64609;47.052;15.462;2023-06-14T12:52:32;5.88;;;3.50;;
75930;SDS011;64609;47.052;15.462;2023-06-14T12:55:01;4.03;;;3.07;;
75930;SDS011;64609;47.052;15.462;2023-06-14T12:57:30;5.22;;;2.95;;
75930;SDS011;64609;47.052;15.462;2023-06-14T12:59:55;4.60;;;3.00;;
75930;SDS011;64609;47.052;15.462;2023-06-14T13:02:21;6.00;;;3.60;;
75930;SDS011;64609;47.052;15.462;2023-06-14T13:04:49;7.70;;;3.40;;
75930;SDS011;64609;47.052;15.462;2023-06-14T13:07:15;7.90;;;3.55;;
75930;SDS011;64609;47.052;15.462;2023-06-14T13:09:41;8.60;;;3.40;;
75930;SDS011;64609;47.052;15.462;2023-06-14T13:12:07;9.45;;;3.17;;
75930;SDS011;64609;47.052;15.462;2023-06-14T13:14:35;6.35;;;3.30;;
75930;SDS011;64609;47.052;15.462;2023-06-14T13:17:01;5.28;;;3.28;;
75930;SDS011;64609;47.052;15.462;2023-06-14T13:19:27;9.07;;;3.65;;
75930;SDS011;64609;47.052;15.462;2023-06-14T13:21:52;4.85;;;3.35;;
75930;SDS011;64609;47.052;15.462;2023-06-14T13:24:18;3.78;;;3.20;;
75930;SDS011;64609;47.052;15.462;2023-06-14T13:26:44;8.57;;;3.50;;
75930;SDS011;64609;47.052;15.462;2023-06-14T13:29:09;8.07;;;3.47;;
75930;SDS011;64609;47.052;15.462;2023-06-14T13:31:35;5.68;;;3.17;;
75930;SDS011;64609;47.052;15.462;2023-06-14T13:34:01;4.78;;;3.47;;
75930;SDS011;64609;47.052;15.462;2023-06-14T13:36:26;5.00;;;3.40;;
75930;SDS011;64609;47.052;15.462;2023-06-14T13:38:52;9.27;;;3.65;;
75930;SDS011;64609;47.052;15.462;2023-06-14T13:41:20;6.72;;;3.20;;
75930;SDS011;64609;47.052;15.462;2023-06-14T13:43:45;5.05;;;3.28;;
75930;SDS011;64609;47.052;15.462;2023-06-14T13:46:11;4.28;;;3.33;;
75930;SDS011;64609;47.052;15.462;2023-06-14T13:48:36;8.02;;;3.17;;
75930;SDS011;64609;47.052;15.462;2023-06-14T13:51:02;5.30;;;3.20;;
75930;SDS011;64609;47.052;15.462;2023-06-14T13:53:29;5.55;;;3.63;;
75930;SDS011;64609;47.052;15.462;2023-06-14T13:55:55;6.53;;;3.58;;
75930;SDS011;64609;47.052;15.462;2023-06-14T13:58:21;6.75;;;3.80;;
75930;SDS011;64609;47.052;15.462;2023-06-14T14:00:48;7.40;;;3.60;;
75930;SDS011;64609;47.052;15.462;2023-06-14T14:03:14;6.22;;;3.67;;
75930;SDS011;64609;47.052;15.462;2023-06-14T14:05:39;6.35;;;3.60;;
75930;SDS011;64609;47.052;15.462;2023-06-14T14:08:05;5.28;;;3.10;;
75930;SDS011;64609;47.052;15.462;2023-06-14T14:10:31;4.60;;;3.17;;
75930;SDS011;64609;47.052;15.462;2023-06-14T14:12:56;5.10;;;3.30;;
75930;SDS011;64609;47.052;15.462;2023-06-14T14:15:22;4.90;;;3.40;;
75930;SDS011;64609;47.052;15.462;2023-06-14T14:17:47;5.57;;;3.53;;
75930;SDS011;64609;47.052;15.462;2023-06-14T14:20:13;3.67;;;3.15;;
75930;SDS011;64609;47.052;15.462;2023-06-14T14:22:41;6.38;;;3.53;;
75930;SDS011;64609;47.052;15.462;2023-06-14T14:25:08;4.80;;;3.30;;
75930;SDS011;64609;47.052;15.462;2023-06-14T14:27:34;5.10;;;3.13;;
75930;SDS011;64609;47.052;15.462;2023-06-14T14:30:00;8.27;;;3.50;;
75930;SDS011;64609;47.052;15.462;2023-06-14T14:32:26;7.43;;;3.40;;
75930;SDS011;64609;47.052;15.462;2023-06-14T14:34:51;7.93;;;3.15;;
75930;SDS011;64609;47.052;15.462;2023-06-14T14:37:17;5.25;;;3.10;;
75930;SDS011;64609;47.052;15.462;2023-06-14T14:39:44;5.40;;;3.60;;
75930;SDS011;64609;47.052;15.462;2023-06-14T14:42:10;4.22;;;2.95;;
75930;SDS011;64609;47.052;15.462;2023-06-14T14:44:37;4.93;;;3.60;;
75930;SDS011;64609;47.052;15.462;2023-06-14T14:47:03;4.13;;;3.05;;
75930;SDS011;64609;47.052;15.462;2023-06-14T14:49:30;5.97;;;3.50;;
75930;SDS011;64609;47.052;15.462;2023-06-14T14:51:56;6.43;;;3.40;;
75930;SDS011;64609;47.052;15.462;2023-06-14T14:54:22;5.78;;;3.40;;
75930;SDS011;64609;47.052;15.462;2023-06-14T14:56:48;4.55;;;3.70;;
75930;SDS011;64609;47.052;15.462;2023-06-14T14:59:14;9.10;;;3.63;;
75930;SDS011;64609;47.052;15.462;2023-06-14T15:01:40;4.75;;;3.22;;
75930;SDS011;64609;47.052;15.462;2023-06-14T15:04:06;6.32;;;3.38;;
75930;SDS011;64609;47.052;15.462;2023-06-14T15:06:31;6.13;;;3.33;;
75930;SDS011;64609;47.052;15.462;2023-06-14T15:09:00;9.25;;;3.72;;